createdAt,value
2018-11-28T00:00:10.903Z,15.67
2018-11-28T00:02:39.058Z,14.40
2018-11-28T00:05:10.128Z,15.00
2018-11-28T00:07:38.488Z,13.80
2018-11-28T00:10:12.556Z,13.07
2018-11-28T00:12:41.051Z,13.43
2018-11-28T00:15:10.403Z,13.10
2018-11-28T00:17:38.548Z,16.33
2018-11-28T00:20:09.327Z,14.73
2018-11-28T00:22:37.555Z,14.30
2018-11-28T00:25:06.300Z,13.70
2018-11-28T00:27:34.468Z,15.37
2018-11-28T00:30:02.651Z,13.60
2018-11-28T00:32:30.812Z,15.37
2018-11-28T00:34:58.956Z,13.33
2018-11-28T00:37:27.116Z,15.10
2018-11-28T00:39:55.264Z,13.63
2018-11-28T00:42:27.675Z,14.43
2018-11-28T00:44:55.820Z,14.40
2018-11-28T00:47:23.975Z,14.30
2018-11-28T00:49:52.135Z,14.20
2018-11-28T00:52:20.287Z,14.83
2018-11-28T00:54:48.443Z,14.40
2018-11-28T00:57:16.596Z,13.70
2018-11-28T00:59:44.858Z,13.13
2018-11-28T01:02:13.002Z,13.80
2018-11-28T01:04:41.157Z,12.67
2018-11-28T01:07:09.316Z,14.10
2018-11-28T01:09:37.476Z,13.60
2018-11-28T01:12:05.735Z,13.43
2018-11-28T01:14:33.893Z,14.33
2018-11-28T01:17:02.060Z,12.50
2018-11-28T01:19:30.219Z,12.93
2018-11-28T01:21:58.368Z,13.30
2018-11-28T01:24:26.622Z,12.77
2018-11-28T01:26:54.780Z,13.80
2018-11-28T01:29:22.933Z,14.10
2018-11-28T01:31:51.073Z,12.67
2018-11-28T01:34:19.216Z,14.03
2018-11-28T01:36:47.348Z,13.90
2018-11-28T01:39:15.490Z,13.53
2018-11-28T01:41:43.623Z,13.27
2018-11-28T01:44:11.764Z,13.07
2018-11-28T01:46:39.948Z,13.00
2018-11-28T01:49:08.100Z,13.30
2018-11-28T01:51:36.233Z,14.00
2018-11-28T01:54:04.795Z,13.90
2018-11-28T01:56:32.924Z,13.40
2018-11-28T01:59:01.104Z,14.40
2018-11-28T02:01:29.240Z,14.47
2018-11-28T02:03:57.384Z,13.30
2018-11-28T02:06:25.524Z,13.07
2018-11-28T02:08:53.663Z,14.20
2018-11-28T02:11:21.796Z,13.00
2018-11-28T02:13:49.943Z,14.10
2018-11-28T02:16:18.129Z,13.33
2018-11-28T02:18:46.220Z,12.80
2018-11-28T02:21:14.357Z,12.63
2018-11-28T02:23:42.525Z,12.33
2018-11-28T02:26:10.668Z,13.80
2018-11-28T02:28:38.837Z,13.80
2018-11-28T02:31:07.033Z,13.93
2018-11-28T02:33:35.194Z,13.20
2018-11-28T02:36:03.355Z,12.77
2018-11-28T02:38:31.508Z,13.40
2018-11-28T02:40:59.673Z,13.50
2018-11-28T02:43:27.819Z,13.70
2018-11-28T02:46:07.397Z,13.50
2018-11-28T02:48:35.561Z,13.80
2018-11-28T02:51:03.712Z,12.97
2018-11-28T02:53:31.871Z,14.60
2018-11-28T02:56:00.041Z,14.10
2018-11-28T02:58:28.192Z,13.40
2018-11-28T03:00:56.357Z,12.97
2018-11-28T03:03:24.537Z,12.70
2018-11-28T03:05:52.697Z,12.80
2018-11-28T03:08:20.875Z,13.83
2018-11-28T03:10:49.029Z,13.37
2018-11-28T03:13:17.185Z,14.23
2018-11-28T03:15:47.084Z,13.63
2018-11-28T03:18:15.224Z,13.33
2018-11-28T03:20:43.385Z,12.90
2018-11-28T03:23:11.530Z,13.43
2018-11-28T03:25:39.684Z,13.17
2018-11-28T03:28:07.844Z,13.73
2018-11-28T03:30:35.997Z,13.43
2018-11-28T03:33:04.277Z,13.20
2018-11-28T03:35:32.440Z,12.90
2018-11-28T03:38:00.620Z,12.80
2018-11-28T03:40:28.796Z,13.27
2018-11-28T03:42:56.940Z,13.07
2018-11-28T03:45:25.097Z,13.17
2018-11-28T03:47:53.268Z,14.00
2018-11-28T03:50:21.456Z,13.30
2018-11-28T03:52:49.611Z,14.27
2018-11-28T03:55:17.796Z,13.10
2018-11-28T03:57:47.072Z,12.93
2018-11-28T04:00:19.187Z,12.77
2018-11-28T04:02:47.644Z,14.87
2018-11-28T04:05:15.794Z,12.87
2018-11-28T04:07:43.945Z,12.80
2018-11-28T04:10:12.996Z,12.70
2018-11-28T04:12:41.679Z,13.53
2018-11-28T04:15:12.990Z,13.70
2018-11-28T04:17:41.199Z,12.90
2018-11-28T04:20:14.948Z,13.40
2018-11-28T04:22:43.091Z,13.53
2018-11-28T04:25:11.983Z,13.70
2018-11-28T04:27:40.176Z,12.67
2018-11-28T04:30:13.444Z,13.10
2018-11-28T04:32:41.590Z,11.67
2018-11-28T04:35:11.144Z,13.83
2018-11-28T04:37:39.298Z,14.77
2018-11-28T04:40:10.876Z,13.70
2018-11-28T04:42:39.161Z,14.20
2018-11-28T04:45:09.276Z,13.80
2018-11-28T04:47:37.434Z,13.93
2018-11-28T04:50:07.301Z,13.80
2018-11-28T04:52:35.450Z,14.10
2018-11-28T04:55:04.236Z,12.90
2018-11-28T04:57:32.397Z,14.10
2018-11-28T05:00:00.558Z,14.07
2018-11-28T05:02:28.712Z,13.93
2018-11-28T05:04:56.865Z,13.70
2018-11-28T05:07:26.368Z,14.53
2018-11-28T05:09:54.730Z,14.03
2018-11-28T05:12:23.015Z,13.90
2018-11-28T05:14:51.680Z,13.83
2018-11-28T05:17:19.993Z,14.67
2018-11-28T05:19:48.137Z,13.77
2018-11-28T05:22:16.296Z,13.77
2018-11-28T05:24:44.501Z,14.30
2018-11-28T05:27:12.637Z,15.17
2018-11-28T05:29:40.780Z,13.53
2018-11-28T05:32:08.980Z,13.20
2018-11-28T05:34:37.132Z,13.93
2018-11-28T05:37:05.824Z,13.13
2018-11-28T05:39:33.976Z,13.13
2018-11-28T05:42:02.137Z,15.60
2018-11-28T05:44:30.285Z,13.90
2018-11-28T05:46:58.458Z,13.10
2018-11-28T05:49:26.609Z,13.60
2018-11-28T05:51:54.764Z,13.80
2018-11-28T05:54:22.925Z,14.57
2018-11-28T05:56:51.104Z,14.00
2018-11-28T05:59:19.259Z,14.37
2018-11-28T06:01:47.421Z,14.70
2018-11-28T06:04:15.583Z,14.17
2018-11-28T06:06:43.736Z,13.90
2018-11-28T06:09:11.884Z,15.03
2018-11-28T06:11:40.043Z,13.43
2018-11-28T06:14:08.448Z,14.70
2018-11-28T06:16:37.487Z,13.60
2018-11-28T06:19:06.581Z,13.60
2018-11-28T06:21:34.757Z,14.07
2018-11-28T06:24:02.922Z,14.50
2018-11-28T06:26:31.100Z,15.03
2018-11-28T06:28:59.280Z,15.33
2018-11-28T06:31:27.445Z,16.00
2018-11-28T06:33:55.597Z,13.80
2018-11-28T06:36:23.760Z,13.97
2018-11-28T06:38:51.912Z,15.07
2018-11-28T06:41:20.075Z,13.47
2018-11-28T06:43:48.256Z,14.43
2018-11-28T06:46:16.400Z,14.50
2018-11-28T06:48:44.563Z,14.73
2018-11-28T06:51:12.708Z,16.07
2018-11-28T06:53:40.875Z,15.60
2018-11-28T06:56:09.019Z,15.17
2018-11-28T06:58:37.179Z,16.50
2018-11-28T07:01:06.221Z,15.53
2018-11-28T07:03:34.376Z,15.67
2018-11-28T07:06:02.520Z,15.33
2018-11-28T07:08:30.676Z,14.83
2018-11-28T07:10:58.829Z,15.43
2018-11-28T07:13:26.993Z,15.27
2018-11-28T07:15:55.140Z,15.20
2018-11-28T07:18:34.603Z,15.97
2018-11-28T07:21:02.755Z,16.50
2018-11-28T07:23:30.920Z,14.93
2018-11-28T07:25:59.068Z,16.10
2018-11-28T07:28:27.240Z,15.63
2018-11-28T07:30:55.388Z,15.30
2018-11-28T07:33:23.553Z,15.43
2018-11-28T07:35:51.705Z,16.50
2018-11-28T07:38:19.867Z,16.00
2018-11-28T07:40:48.013Z,15.07
2018-11-28T07:43:16.173Z,15.60
2018-11-28T07:45:46.137Z,15.37
2018-11-28T07:48:14.275Z,15.67
2018-11-28T07:50:42.433Z,15.07
2018-11-28T07:53:10.584Z,15.47
2018-11-28T07:55:38.736Z,15.23
2018-11-28T07:58:07.172Z,14.87
2018-11-28T08:00:36.189Z,15.30
2018-11-28T08:03:05.707Z,16.07
2018-11-28T08:05:33.957Z,16.13
2018-11-28T08:08:02.106Z,15.70
2018-11-28T08:10:30.251Z,14.80
2018-11-28T08:12:58.594Z,14.50
2018-11-28T08:15:26.994Z,15.13
2018-11-28T08:17:55.016Z,14.43
2018-11-28T08:20:23.163Z,14.87
2018-11-28T08:22:51.092Z,15.40
2018-11-28T08:25:19.252Z,16.03
2018-11-28T08:27:48.511Z,15.17
2018-11-28T08:30:19.898Z,15.37
2018-11-28T08:32:47.860Z,15.00
2018-11-28T08:35:16.023Z,14.07
2018-11-28T08:37:44.259Z,16.23
2018-11-28T08:40:15.523Z,16.43
2018-11-28T08:42:43.751Z,16.03
2018-11-28T08:45:13.311Z,14.67
2018-11-28T08:47:41.481Z,15.30
2018-11-28T08:50:15.057Z,15.67
2018-11-28T08:52:43.235Z,16.77
2018-11-28T08:55:12.279Z,14.67
2018-11-28T08:57:40.424Z,16.63
2018-11-28T09:00:19.693Z,15.37
2018-11-28T09:02:48.896Z,16.33
2018-11-28T09:05:17.056Z,16.93
2018-11-28T09:07:45.279Z,14.70
2018-11-28T09:10:15.523Z,15.70
2018-11-28T09:12:44.052Z,17.53
2018-11-28T09:15:14.200Z,15.87
2018-11-28T09:17:42.366Z,16.10
2018-11-28T09:20:12.562Z,16.83
2018-11-28T09:22:40.712Z,16.37
2018-11-28T09:25:10.465Z,15.83
2018-11-28T09:27:38.624Z,15.50
2018-11-28T09:30:13.456Z,14.97
2018-11-28T09:32:41.617Z,16.70
2018-11-28T09:35:10.693Z,16.60
2018-11-28T09:37:38.820Z,15.83
2018-11-28T09:40:10.816Z,15.67
2018-11-28T09:42:39.248Z,15.57
2018-11-28T09:45:09.200Z,15.83
2018-11-28T09:47:37.408Z,16.47
2018-11-28T09:50:09.755Z,16.10
2018-11-28T09:52:37.915Z,16.50
2018-11-28T09:55:07.332Z,17.23
2018-11-28T09:57:35.489Z,17.00
2018-11-28T10:00:03.930Z,15.43
2018-11-28T10:02:32.080Z,15.90
2018-11-28T10:05:02.677Z,15.93
2018-11-28T10:07:28.410Z,15.50
2018-11-28T10:09:56.580Z,16.00
2018-11-28T10:12:24.732Z,15.53
2018-11-28T10:14:52.897Z,15.20
2018-11-28T10:17:21.948Z,18.50
2018-11-28T10:19:50.109Z,20.40
2018-11-28T10:22:18.269Z,16.13
2018-11-28T10:24:46.448Z,20.33
2018-11-28T10:27:14.596Z,17.40
2018-11-28T10:29:42.764Z,18.30
2018-11-28T10:32:10.916Z,16.00
2018-11-28T10:34:39.088Z,16.10
2018-11-28T10:37:07.244Z,16.13
2018-11-28T10:39:35.400Z,17.30
2018-11-28T10:42:03.557Z,16.50
2018-11-28T10:44:31.727Z,18.40
2018-11-28T10:46:59.880Z,18.63
2018-11-28T10:49:28.019Z,17.17
2018-11-28T10:51:56.211Z,14.73
2018-11-28T10:54:24.345Z,14.67
2018-11-28T10:56:52.484Z,14.70
2018-11-28T10:59:20.633Z,13.87
2018-11-28T11:01:51.882Z,14.23
2018-11-28T11:04:24.416Z,13.00
2018-11-28T11:06:58.152Z,13.50
2018-11-28T11:09:31.833Z,15.70
2018-11-28T11:12:06.760Z,13.07
2018-11-28T11:14:40.261Z,13.90
2018-11-28T11:17:08.392Z,14.03
2018-11-28T11:19:36.548Z,14.50
2018-11-28T11:22:05.165Z,16.30
2018-11-28T11:24:33.309Z,13.10
2018-11-28T11:27:01.497Z,13.33
2018-11-28T11:29:29.633Z,13.80
2018-11-28T11:31:57.807Z,13.57
2018-11-28T11:34:25.957Z,12.43
2018-11-28T11:36:54.105Z,15.10
2018-11-28T11:39:22.255Z,13.20
2018-11-28T11:41:50.400Z,12.70
2018-11-28T11:44:18.541Z,17.80
2018-11-28T11:46:46.725Z,13.63
2018-11-28T11:49:14.879Z,14.00
2018-11-28T11:51:43.078Z,13.50
2018-11-28T11:54:11.216Z,16.13
2018-11-28T11:56:39.397Z,15.70
2018-11-28T11:59:07.569Z,12.67
2018-11-28T12:01:35.725Z,14.33
2018-11-28T12:04:03.907Z,11.90
2018-11-28T12:06:32.069Z,12.67
2018-11-28T12:09:00.316Z,13.30
2018-11-28T12:11:28.468Z,11.63
2018-11-28T12:13:56.623Z,12.60
2018-11-28T12:16:24.788Z,12.47
2018-11-28T12:18:52.944Z,12.83
2018-11-28T12:21:21.113Z,12.13
2018-11-28T12:23:49.260Z,12.10
2018-11-28T12:26:17.429Z,12.10
2018-11-28T12:28:45.576Z,12.80
2018-11-28T12:31:13.840Z,11.60
2018-11-28T12:33:41.993Z,18.10
2018-11-28T12:36:10.192Z,12.30
2018-11-28T12:38:38.345Z,12.03
2018-11-28T12:41:06.748Z,12.83
2018-11-28T12:43:35.015Z,11.17
2018-11-28T12:46:03.173Z,11.30
2018-11-28T12:48:31.326Z,11.70
2018-11-28T12:50:59.504Z,12.67
2018-11-28T12:53:27.652Z,9.90
2018-11-28T12:55:55.808Z,10.97
2018-11-28T12:58:23.960Z,10.33
2018-11-28T13:00:52.112Z,11.80
2018-11-28T13:03:20.328Z,12.57
2018-11-28T13:05:48.541Z,12.20
2018-11-28T13:08:16.701Z,19.40
2018-11-28T13:10:44.861Z,12.80
2018-11-28T13:13:13.095Z,14.73
2018-11-28T13:15:41.232Z,13.30
2018-11-28T13:18:10.360Z,15.90
2018-11-28T13:20:39.438Z,16.30
2018-11-28T13:23:08.358Z,13.37
2018-11-28T13:25:36.505Z,12.57
2018-11-28T13:28:04.667Z,12.53
2018-11-28T13:30:32.858Z,12.23
2018-11-28T13:33:01.112Z,12.43
2018-11-28T13:35:29.260Z,12.50
2018-11-28T13:38:00.876Z,12.70
2018-11-28T13:40:29.017Z,12.73
2018-11-28T13:42:57.164Z,12.53
2018-11-28T13:45:28.243Z,11.60
2018-11-28T13:47:56.537Z,13.50
2018-11-28T13:50:24.745Z,10.60
2018-11-28T13:52:53.736Z,10.50
2018-11-28T13:55:39.777Z,10.80
2018-11-28T13:57:58.541Z,11.03
2018-11-28T14:00:26.688Z,10.07
2018-11-28T14:02:54.851Z,9.30
2018-11-28T14:05:22.997Z,10.17
2018-11-28T14:07:51.152Z,10.80
2018-11-28T14:10:19.324Z,10.97
2018-11-28T14:12:47.480Z,10.40
2018-11-28T14:15:23.745Z,10.23
2018-11-28T14:17:56.081Z,10.60
2018-11-28T14:20:24.220Z,9.83
2018-11-28T14:22:52.375Z,9.43
2018-11-28T14:25:20.525Z,9.80
2018-11-28T14:27:48.748Z,9.50
2018-11-28T14:30:21.909Z,10.00
2018-11-28T14:32:50.717Z,8.87
2018-11-28T14:35:19.153Z,9.50
2018-11-28T14:37:47.323Z,9.67
2018-11-28T14:40:16.433Z,9.60
2018-11-28T14:42:46.565Z,8.73
2018-11-28T14:45:17.532Z,9.23
2018-11-28T14:47:46.185Z,10.43
2018-11-28T14:50:17.829Z,10.37
2018-11-28T14:52:46.028Z,10.10
2018-11-28T14:55:19.139Z,9.53
2018-11-28T14:57:47.243Z,8.93
2018-11-28T15:00:22.707Z,8.87
2018-11-28T15:02:53.885Z,9.60
2018-11-28T15:05:27.260Z,9.60
2018-11-28T15:07:58.317Z,10.17
2018-11-28T15:10:39.437Z,10.10
2018-11-28T15:13:07.644Z,9.17
2018-11-28T15:15:35.764Z,9.90
2018-11-28T15:18:03.905Z,10.47
2018-11-28T15:20:32.041Z,8.80
2018-11-28T15:23:00.196Z,10.17
2018-11-28T15:25:28.319Z,9.10
2018-11-28T15:27:56.453Z,9.93
2018-11-28T15:30:24.585Z,9.80
2018-11-28T15:32:52.723Z,9.70
2018-11-28T15:35:20.961Z,9.70
2018-11-28T15:37:49.120Z,8.87
2018-11-28T15:40:17.248Z,10.77
2018-11-28T15:42:45.384Z,9.20
2018-11-28T15:45:13.534Z,9.53
2018-11-28T15:47:41.697Z,10.23
2018-11-28T15:50:09.857Z,9.30
2018-11-28T15:52:38.020Z,10.00
2018-11-28T15:55:07.725Z,9.33
2018-11-28T15:57:35.876Z,11.30
2018-11-28T16:00:04.579Z,9.10
2018-11-28T16:02:32.739Z,9.73
2018-11-28T16:05:00.888Z,10.10
2018-11-28T16:07:29.040Z,9.73
2018-11-28T16:10:02.436Z,10.33
2018-11-28T16:12:30.584Z,10.00
2018-11-28T16:14:58.745Z,10.10
2018-11-28T16:17:26.988Z,8.80
2018-11-28T16:19:55.149Z,11.20
2018-11-28T16:22:23.326Z,10.37
2018-11-28T16:24:51.485Z,12.10
2018-11-28T16:27:19.731Z,9.93
2018-11-28T16:29:48.080Z,10.80
2018-11-28T16:32:16.224Z,10.97
2018-11-28T16:34:44.621Z,11.50
2018-11-28T16:37:12.557Z,12.90
2018-11-28T16:39:40.713Z,12.17
2018-11-28T16:42:08.866Z,12.50
2018-11-28T16:44:37.016Z,13.80
2018-11-28T16:47:05.493Z,13.70
2018-11-28T16:49:33.660Z,12.17
2018-11-28T16:52:01.824Z,12.77
2018-11-28T16:54:29.976Z,11.60
2018-11-28T16:56:58.119Z,11.80
2018-11-28T16:59:30.675Z,11.60
2018-11-28T17:01:54.483Z,12.13
2018-11-28T17:04:22.636Z,12.70
2018-11-28T17:06:50.799Z,12.50
2018-11-28T17:09:18.968Z,12.47
2018-11-28T17:11:47.129Z,12.50
2018-11-28T17:14:15.295Z,11.60
2018-11-28T17:16:43.447Z,11.90
2018-11-28T17:19:11.612Z,16.87
2018-11-28T17:21:39.765Z,14.73
2018-11-28T17:24:07.927Z,12.60
2018-11-28T17:26:36.087Z,13.10
2018-11-28T17:29:04.261Z,13.40
2018-11-28T17:31:32.416Z,12.70
2018-11-28T17:34:00.649Z,13.50
2018-11-28T17:36:28.776Z,13.43
2018-11-28T17:38:56.936Z,13.57
2018-11-28T17:41:25.113Z,14.33
2018-11-28T17:43:53.344Z,14.07
2018-11-28T17:46:21.494Z,13.90
2018-11-28T17:48:49.700Z,14.40
2018-11-28T17:51:17.840Z,13.10
2018-11-28T17:53:45.976Z,13.43
2018-11-28T17:56:14.119Z,13.63
2018-11-28T17:58:42.271Z,12.73
2018-11-28T18:01:10.423Z,12.73
2018-11-28T18:03:38.551Z,12.97
2018-11-28T18:06:06.688Z,13.43
2018-11-28T18:08:34.836Z,14.93
2018-11-28T18:11:10.294Z,14.47
2018-11-28T18:13:39.586Z,12.93
2018-11-28T18:16:07.412Z,12.70
2018-11-28T18:18:35.549Z,13.73
2018-11-28T18:21:03.684Z,13.83
2018-11-28T18:23:31.808Z,13.63
2018-11-28T18:26:00.372Z,13.30
2018-11-28T18:28:28.633Z,14.10
2018-11-28T18:30:56.760Z,14.20
2018-11-28T18:33:24.900Z,14.40
2018-11-28T18:35:53.035Z,14.17
2018-11-28T18:38:21.179Z,15.40
2018-11-28T18:40:49.357Z,14.20
2018-11-28T18:43:17.517Z,14.47
2018-11-28T18:45:48.468Z,14.90
2018-11-28T18:48:16.600Z,12.40
2018-11-28T18:50:44.760Z,16.00
2018-11-28T18:53:12.980Z,14.63
2018-11-28T18:55:41.156Z,14.90
2018-11-28T18:58:10.565Z,13.10
2018-11-28T19:00:38.700Z,14.40
2018-11-28T19:03:07.470Z,16.10
2018-11-28T19:05:35.848Z,17.20
2018-11-28T19:08:04.008Z,14.50
2018-11-28T19:10:32.178Z,12.20
2018-11-28T19:13:00.308Z,12.17
2018-11-28T19:15:29.075Z,15.47
2018-11-28T19:17:58.045Z,13.30
2018-11-28T19:20:26.193Z,13.00
2018-11-28T19:22:55.204Z,10.63
2018-11-28T19:25:25.445Z,10.77
2018-11-28T19:27:53.610Z,10.50
2018-11-28T19:30:39.141Z,11.80
2018-11-28T19:33:09.644Z,10.73
2018-11-28T19:35:37.797Z,10.13
2018-11-28T19:38:07.931Z,10.33
2018-11-28T19:40:55.676Z,11.20
2018-11-28T19:43:23.873Z,10.60
2018-11-28T19:45:52.019Z,10.87
2018-11-28T19:48:20.195Z,10.37
2018-11-28T19:50:48.434Z,11.03
2018-11-28T19:53:16.816Z,10.20
2018-11-28T19:55:44.960Z,10.50
2018-11-28T19:58:13.113Z,9.53
2018-11-28T20:00:45.476Z,10.37
2018-11-28T20:03:13.676Z,8.60
2018-11-28T20:05:41.909Z,9.73
2018-11-28T20:08:10.069Z,9.97
2018-11-28T20:10:38.260Z,10.87
2018-11-28T20:13:08.003Z,10.20
2018-11-28T20:15:36.585Z,10.73
2018-11-28T20:18:05.348Z,10.53
2018-11-28T20:20:33.525Z,10.27
2018-11-28T20:23:01.696Z,9.70
2018-11-28T20:25:29.877Z,10.40
2018-11-28T20:27:59.928Z,10.73
2018-11-28T20:30:33.636Z,11.37
2018-11-28T20:33:01.893Z,9.50
2018-11-28T20:35:30.102Z,10.43
2018-11-28T20:37:58.949Z,10.10
2018-11-28T20:40:27.165Z,10.97
2018-11-28T20:42:55.993Z,9.40
2018-11-28T20:45:24.149Z,10.40
2018-11-28T20:47:52.309Z,9.67
2018-11-28T20:50:28.265Z,11.00
2018-11-28T20:52:59.776Z,9.40
2018-11-28T20:55:27.929Z,8.90
2018-11-28T20:57:56.092Z,11.00
2018-11-28T21:00:25.061Z,10.10
2018-11-28T21:02:53.201Z,9.70
2018-11-28T21:05:21.367Z,9.53
2018-11-28T21:07:49.501Z,9.67
2018-11-28T21:10:22.958Z,10.20
2018-11-28T21:12:51.075Z,11.57
2018-11-28T21:15:19.243Z,10.60
2018-11-28T21:17:47.756Z,10.57
2018-11-28T21:20:16.941Z,10.43
2018-11-28T21:22:46.641Z,10.87
2018-11-28T21:25:14.792Z,10.93
2018-11-28T21:27:42.960Z,9.83
2018-11-28T21:30:13.733Z,9.23
2018-11-28T21:32:42.304Z,9.10
2018-11-28T21:35:16.940Z,10.63
2018-11-28T21:37:45.106Z,9.60
2018-11-28T21:40:13.363Z,9.60
2018-11-28T21:42:41.514Z,9.60
2018-11-28T21:45:12.752Z,9.67
2018-11-28T21:47:40.956Z,9.60
2018-11-28T21:50:13.280Z,10.37
2018-11-28T21:52:41.437Z,10.10
2018-11-28T21:55:10.779Z,9.80
2018-11-28T21:57:38.956Z,9.77
2018-11-28T22:00:13.339Z,10.57
2018-11-28T22:02:41.519Z,9.87
2018-11-28T22:05:10.743Z,9.43
2018-11-28T22:07:38.906Z,9.90
2018-11-28T22:10:08.936Z,10.13
2018-11-28T22:12:37.095Z,10.30
2018-11-28T22:15:07.948Z,9.07
2018-11-28T22:17:36.148Z,9.93
2018-11-28T22:20:04.463Z,10.20
2018-11-28T22:22:32.620Z,9.97
2018-11-28T22:25:00.775Z,11.20
2018-11-28T22:27:28.930Z,10.03
2018-11-28T22:29:57.091Z,9.77
2018-11-28T22:32:25.223Z,9.60
2018-11-28T22:34:53.380Z,9.80
2018-11-28T22:37:21.524Z,9.50
2018-11-28T22:39:49.680Z,9.73
2018-11-28T22:42:17.824Z,9.43
2018-11-28T22:44:46.066Z,9.27
2018-11-28T22:47:14.205Z,9.60
2018-11-28T22:49:42.371Z,9.97
2018-11-28T22:52:10.520Z,9.10
2018-11-28T22:54:38.674Z,8.87
2018-11-28T22:57:06.828Z,9.60
2018-11-28T22:59:34.980Z,9.27
2018-11-28T23:02:39.644Z,9.03
2018-11-28T23:05:07.801Z,9.50
2018-11-28T23:07:35.940Z,9.20
2018-11-28T23:10:04.582Z,8.20
2018-11-28T23:12:32.712Z,8.90
2018-11-28T23:15:00.878Z,8.80
2018-11-28T23:17:29.017Z,9.13
2018-11-28T23:19:57.164Z,8.07
2018-11-28T23:22:25.304Z,8.17
2018-11-28T23:24:53.464Z,8.13
2018-11-28T23:27:21.604Z,8.40
2018-11-28T23:29:49.752Z,8.67
2018-11-28T23:32:17.911Z,9.10
2018-11-28T23:34:46.063Z,8.67
2018-11-28T23:37:14.209Z,8.00
2018-11-28T23:39:42.356Z,9.90
2018-11-28T23:42:10.496Z,8.93
2018-11-28T23:44:38.653Z,8.77
2018-11-28T23:47:06.819Z,8.47
2018-11-28T23:49:35.235Z,8.93
2018-11-28T23:52:03.393Z,8.63
2018-11-28T23:54:31.527Z,9.13
2018-11-28T23:56:59.657Z,8.67
2018-11-28T23:59:27.787Z,8.80
